Terminal Aerodrome Forecast
Issued by NWS Cleveland, OH

Home | Current Version | Previous Version | Text Only | Print | Product List | Glossary Off
Versions: 1 2 3 4 5 6 7 8 9 10 11 12 13 14 15 16 17 18 19

739
FTUS41 KCLE 281138
TAFCAK
TAF
KCAK 281138Z 2812/2912 05008KT P6SM -SHRA OVC035
     FM281300 06010KT P6SM -SHRA OVC028
     FM281500 07010KT P6SM OVC018
     FM281800 05008KT P6SM OVC008
     FM290300 03006KT 4SM BR VCSH OVC006=

USA.gov is the U.S. government's official web portal to all federal, state and local government web resources and services.